sensor_id;sensor_type;location;lat;lon;timestamp;temperature;humidity
1534;DHT22;760;48.822;9.304;2023-07-09T04:04:18;18.90;99.90
1534;DHT22;760;48.822;9.304;2023-07-09T04:06:46;18.90;99.90
1534;DHT22;760;48.822;9.304;2023-07-09T04:09:12;18.90;99.90
1534;DHT22;760;48.822;9.304;2023-07-09T04:11:38;19.00;99.90
1534;DHT22;760;48.822;9.304;2023-07-09T04:14:03;19.00;99.90
1534;DHT22;760;48.822;9.304;2023-07-09T04:16:29;19.10;99.90
1534;DHT22;760;48.822;9.304;2023-07-09T04:18:55;19.10;99.90
1534;DHT22;760;48.822;9.304;2023-07-09T04:21:20;19.10;99.90
1534;DHT22;760;48.822;9.304;2023-07-09T04:23:46;19.20;99.90
1534;DHT22;760;48.822;9.304;2023-07-09T04:26:15;19.30;99.90
1534;DHT22;760;48.822;9.304;2023-07-09T04:28:40;19.40;99.90
1534;DHT22;760;48.822;9.304;2023-07-09T04:31:06;19.50;99.90
1534;DHT22;760;48.822;9.304;2023-07-09T04:33:31;19.60;99.90
1534;DHT22;760;48.822;9.304;2023-07-09T04:35:57;19.80;99.90
1534;DHT22;760;48.822;9.304;2023-07-09T04:38:23;20.00;99.90
1534;DHT22;760;48.822;9.304;2023-07-09T04:40:48;20.20;99.90
1534;DHT22;760;48.822;9.304;2023-07-09T04:43:14;20.40;99.90
1534;DHT22;760;48.822;9.304;2023-07-09T04:45:40;20.70;99.90
1534;DHT22;760;48.822;9.304;2023-07-09T04:48:06;20.90;99.90
1534;DHT22;760;48.822;9.304;2023-07-09T04:50:31;21.10;99.90
1534;DHT22;760;48.822;9.304;2023-07-09T04:52:59;21.40;99.90
1534;DHT22;760;48.822;9.304;2023-07-09T04:55:24;21.60;99.90
1534;DHT22;760;48.822;9.304;2023-07-09T04:57:52;21.80;99.90
1534;DHT22;760;48.822;9.304;2023-07-09T05:00:18;21.90;99.90
1534;DHT22;760;48.822;9.304;2023-07-09T05:02:43;21.90;99.90
1534;DHT22;760;48.822;9.304;2023-07-09T05:05:09;21.90;99.90
1534;DHT22;760;48.822;9.304;2023-07-09T05:07:37;21.90;99.90
1534;DHT22;760;48.822;9.304;2023-07-09T05:10:03;22.00;99.90
1534;DHT22;760;48.822;9.304;2023-07-09T05:12:28;22.00;99.90
1534;DHT22;760;48.822;9.304;2023-07-09T05:14:55;22.00;99.90
1534;DHT22;760;48.822;9.304;2023-07-09T05:17:22;22.10;99.90
1534;DHT22;760;48.822;9.304;2023-07-09T05:19:49;22.10;99.90
1534;DHT22;760;48.822;9.304;2023-07-09T05:22:15;22.10;99.90
1534;DHT22;760;48.822;9.304;2023-07-09T05:24:40;22.20;99.90
1534;DHT22;760;48.822;9.304;2023-07-09T05:27:06;22.40;99.90
1534;DHT22;760;48.822;9.304;2023-07-09T05:29:32;22.50;99.90
1534;DHT22;760;48.822;9.304;2023-07-09T05:31:57;22.60;99.90
1534;DHT22;760;48.822;9.304;2023-07-09T05:34:23;22.70;99.90
1534;DHT22;760;48.822;9.304;2023-07-09T05:36:49;22.80;99.90
1534;DHT22;760;48.822;9.304;2023-07-09T05:39:14;22.90;99.90
1534;DHT22;760;48.822;9.304;2023-07-09T05:41:41;23.20;99.90
1534;DHT22;760;48.822;9.304;2023-07-09T05:44:07;23.60;99.90
1534;DHT22;760;48.822;9.304;2023-07-09T05:46:36;23.80;99.40
1534;DHT22;760;48.822;9.304;2023-07-09T05:49:04;24.00;99.30
1534;DHT22;760;48.822;9.304;2023-07-09T05:51:29;24.10;98.70
1534;DHT22;760;48.822;9.304;2023-07-09T05:53:55;24.20;98.40
1534;DHT22;760;48.822;9.304;2023-07-09T05:56:21;24.30;98.00
1534;DHT22;760;48.822;9.304;2023-07-09T05:58:46;24.60;97.80
1534;DHT22;760;48.822;9.304;2023-07-09T06:01:13;24.60;97.90
1534;DHT22;760;48.822;9.304;2023-07-09T06:03:38;24.70;97.40
1534;DHT22;760;48.822;9.304;2023-07-09T06:06:05;24.70;97.60
1534;DHT22;760;48.822;9.304;2023-07-09T06:08:31;24.60;97.30
1534;DHT22;760;48.822;9.304;2023-07-09T06:11:02;24.60;97.20
1534;DHT22;760;48.822;9.304;2023-07-09T06:13:29;24.70;96.70
1534;DHT22;760;48.822;9.304;2023-07-09T06:15:56;24.80;96.70
1534;DHT22;760;48.822;9.304;2023-07-09T06:18:24;24.90;96.60
1534;DHT22;760;48.822;9.304;2023-07-09T06:20:56;24.90;96.70
1534;DHT22;760;48.822;9.304;2023-07-09T06:23:22;25.00;96.70
1534;DHT22;760;48.822;9.304;2023-07-09T06:25:48;25.10;96.40
1534;DHT22;760;48.822;9.304;2023-07-09T06:28:19;25.20;96.40
1534;DHT22;760;48.822;9.304;2023-07-09T06:30:45;25.40;96.10
1534;DHT22;760;48.822;9.304;2023-07-09T06:33:13;25.50;96.10
1534;DHT22;760;48.822;9.304;2023-07-09T06:35:45;25.80;95.90
1534;DHT22;760;48.822;9.304;2023-07-09T06:38:11;26.10;95.50
1534;DHT22;760;48.822;9.304;2023-07-09T06:40:36;26.30;94.50
1534;DHT22;760;48.822;9.304;2023-07-09T06:43:02;26.60;93.90
1534;DHT22;760;48.822;9.304;2023-07-09T06:45:27;26.70;93.60
1534;DHT22;760;48.822;9.304;2023-07-09T06:47:53;26.80;93.60
1534;DHT22;760;48.822;9.304;2023-07-09T06:50:19;26.70;93.60
1534;DHT22;760;48.822;9.304;2023-07-09T06:52:44;26.70;93.20
1534;DHT22;760;48.822;9.304;2023-07-09T06:55:10;26.70;93.10
1534;DHT22;760;48.822;9.304;2023-07-09T06:57:36;26.80;93.40
1534;DHT22;760;48.822;9.304;2023-07-09T07:00:03;26.80;93.10
1534;DHT22;760;48.822;9.304;2023-07-09T07:02:29;26.80;93.00
1534;DHT22;760;48.822;9.304;2023-07-09T07:04:54;26.90;92.60
1534;DHT22;760;48.822;9.304;2023-07-09T07:07:22;27.00;92.60
1534;DHT22;760;48.822;9.304;2023-07-09T07:09:47;27.10;92.00
1534;DHT22;760;48.822;9.304;2023-07-09T07:12:24;27.20;92.10
1534;DHT22;760;48.822;9.304;2023-07-09T07:14:50;27.40;92.10
1534;DHT22;760;48.822;9.304;2023-07-09T07:17:16;27.60;91.70
1534;DHT22;760;48.822;9.304;2023-07-09T07:19:42;27.70;91.10
1534;DHT22;760;48.822;9.304;2023-07-09T07:22:07;27.80;90.80
1534;DHT22;760;48.822;9.304;2023-07-09T07:24:33;27.90;90.60
1534;DHT22;760;48.822;9.304;2023-07-09T07:26:59;28.10;90.60
1534;DHT22;760;48.822;9.304;2023-07-09T07:29:24;28.30;90.40
1534;DHT22;760;48.822;9.304;2023-07-09T07:31:50;28.70;89.90
1534;DHT22;760;48.822;9.304;2023-07-09T07:34:15;29.30;87.80
1534;DHT22;760;48.822;9.304;2023-07-09T07:36:41;30.00;85.50
1534;DHT22;760;48.822;9.304;2023-07-09T07:39:07;30.80;83.30
1534;DHT22;760;48.822;9.304;2023-07-09T07:41:32;31.60;79.70
1534;DHT22;760;48.822;9.304;2023-07-09T07:43:58;32.30;77.20
1534;DHT22;760;48.822;9.304;2023-07-09T07:46:23;33.10;74.60
1534;DHT22;760;48.822;9.304;2023-07-09T07:48:49;34.00;73.10
1534;DHT22;760;48.822;9.304;2023-07-09T07:51:15;35.00;69.70
1534;DHT22;760;48.822;9.304;2023-07-09T07:53:40;36.10;66.90
1534;DHT22;760;48.822;9.304;2023-07-09T07:56:06;37.10;63.10
1534;DHT22;760;48.822;9.304;2023-07-09T07:58:32;37.70;62.10
1534;DHT22;760;48.822;9.304;2023-07-09T08:00:58;38.60;59.30
1534;DHT22;760;48.822;9.304;2023-07-09T08:03:24;39.60;57.20
1534;DHT22;760;48.822;9.304;2023-07-09T08:05:50;40.40;54.70
1534;DHT22;760;48.822;9.304;2023-07-09T08:08:16;40.80;54.20
1534;DHT22;760;48.822;9.304;2023-07-09T08:10:41;40.70;53.80
1534;DHT22;760;48.822;9.304;2023-07-09T08:13:07;41.10;52.80
1534;DHT22;760;48.822;9.304;2023-07-09T08:15:33;41.70;51.90
1534;DHT22;760;48.822;9.304;2023-07-09T08:17:59;41.80;51.20
1534;DHT22;760;48.822;9.304;2023-07-09T08:20:25;41.30;51.10
1534;DHT22;760;48.822;9.304;2023-07-09T08:22:51;41.20;50.50
1534;DHT22;760;48.822;9.304;2023-07-09T08:25:17;41.10;50.40
1534;DHT22;760;48.822;9.304;2023-07-09T08:27:42;41.30;50.70
1534;DHT22;760;48.822;9.304;2023-07-09T08:30:08;41.70;49.80
1534;DHT22;760;48.822;9.304;2023-07-09T08:32:34;42.00;49.60
1534;DHT22;760;48.822;9.304;2023-07-09T08:35:00;42.40;49.00
1534;DHT22;760;48.822;9.304;2023-07-09T08:37:25;42.20;48.60
1534;DHT22;760;48.822;9.304;2023-07-09T08:39:51;42.50;48.30
1534;DHT22;760;48.822;9.304;2023-07-09T08:42:30;42.80;47.60
1534;DHT22;760;48.822;9.304;2023-07-09T08:47:28;43.40;47.10
1534;DHT22;760;48.822;9.304;2023-07-09T08:50:24;43.40;47.50
1534;DHT22;760;48.822;9.304;2023-07-09T08:52:51;43.80;46.80
1534;DHT22;760;48.822;9.304;2023-07-09T08:55:23;44.20;45.60
1534;DHT22;760;48.822;9.304;2023-07-09T08:57:55;44.50;45.40
1534;DHT22;760;48.822;9.304;2023-07-09T09:00:41;44.10;45.70
1534;DHT22;760;48.822;9.304;2023-07-09T09:03:15;44.10;45.50
1534;DHT22;760;48.822;9.304;2023-07-09T09:05:45;43.80;46.50
1534;DHT22;760;48.822;9.304;2023-07-09T09:08:23;44.10;46.40
1534;DHT22;760;48.822;9.304;2023-07-09T09:11:20;44.20;45.40
1534;DHT22;760;48.822;9.304;2023-07-09T09:13:50;44.20;45.10
1534;DHT22;760;48.822;9.304;2023-07-09T09:16:38;44.60;44.90
1534;DHT22;760;48.822;9.304;2023-07-09T09:19:16;45.40;44.00
1534;DHT22;760;48.822;9.304;2023-07-09T09:21:43;46.20;43.20
1534;DHT22;760;48.822;9.304;2023-07-09T09:24:17;46.60;42.60
1534;DHT22;760;48.822;9.304;2023-07-09T09:26:44;46.50;42.70
1534;DHT22;760;48.822;9.304;2023-07-09T09:29:12;46.10;43.10
1534;DHT22;760;48.822;9.304;2023-07-09T09:31:38;46.00;42.80
1534;DHT22;760;48.822;9.304;2023-07-09T09:34:04;45.90;42.40
1534;DHT22;760;48.822;9.304;2023-07-09T09:36:30;45.90;42.10
1534;DHT22;760;48.822;9.304;2023-07-09T09:39:02;45.80;42.10
1534;DHT22;760;48.822;9.304;2023-07-09T09:41:37;45.90;41.80
1534;DHT22;760;48.822;9.304;2023-07-09T09:44:03;45.90;41.50
1534;DHT22;760;48.822;9.304;2023-07-09T09:46:32;46.00;41.40
1534;DHT22;760;48.822;9.304;2023-07-09T09:49:02;45.80;41.40
1534;DHT22;760;48.822;9.304;2023-07-09T09:51:28;45.60;41.30
1534;DHT22;760;48.822;9.304;2023-07-09T09:54:01;45.80;41.00
1534;DHT22;760;48.822;9.304;2023-07-09T09:58:54;46.00;40.60
1534;DHT22;760;48.822;9.304;2023-07-09T10:01:29;46.20;39.30
1534;DHT22;760;48.822;9.304;2023-07-09T10:03:57;46.50;38.60
1534;DHT22;760;48.822;9.304;2023-07-09T10:06:34;46.40;38.50
1534;DHT22;760;48.822;9.304;2023-07-09T10:09:19;46.70;38.10
1534;DHT22;760;48.822;9.304;2023-07-09T10:14:58;48.00;36.00
1534;DHT22;760;48.822;9.304;2023-07-09T10:17:55;48.00;35.50
1534;DHT22;760;48.822;9.304;2023-07-09T10:20:39;48.00;35.20
1534;DHT22;760;48.822;9.304;2023-07-09T10:23:25;47.30;35.30
1534;DHT22;760;48.822;9.304;2023-07-09T10:31:58;46.20;35.70
1534;DHT22;760;48.822;9.304;2023-07-09T10:37:35;45.90;35.80
1534;DHT22;760;48.822;9.304;2023-07-09T10:40:09;45.80;35.70
1534;DHT22;760;48.822;9.304;2023-07-09T10:42:40;45.60;35.90
1534;DHT22;760;48.822;9.304;2023-07-09T10:45:13;45.30;35.40
1534;DHT22;760;48.822;9.304;2023-07-09T10:47:44;44.90;35.80
1534;DHT22;760;48.822;9.304;2023-07-09T10:50:15;44.50;35.90
1534;DHT22;760;48.822;9.304;2023-07-09T10:52:46;44.40;36.20
1534;DHT22;760;48.822;9.304;2023-07-09T10:55:15;44.30;36.10
1534;DHT22;760;48.822;9.304;2023-07-09T10:58:04;44.50;35.90
1534;DHT22;760;48.822;9.304;2023-07-09T11:00:38;44.60;36.20
1534;DHT22;760;48.822;9.304;2023-07-09T11:03:26;44.40;35.60
1534;DHT22;760;48.822;9.304;2023-07-09T11:05:55;43.70;35.70
1534;DHT22;760;48.822;9.304;2023-07-09T11:08:34;43.10;36.60
1534;DHT22;760;48.822;9.304;2023-07-09T11:11:08;42.70;36.20
1534;DHT22;760;48.822;9.304;2023-07-09T11:13:42;42.50;36.80
1534;DHT22;760;48.822;9.304;2023-07-09T11:16:16;42.20;36.50
1534;DHT22;760;48.822;9.304;2023-07-09T11:18:54;41.70;37.00
1534;DHT22;760;48.822;9.304;2023-07-09T11:21:21;40.90;36.90
1534;DHT22;760;48.822;9.304;2023-07-09T11:23:50;40.10;37.40
1534;DHT22;760;48.822;9.304;2023-07-09T11:26:31;39.20;38.00
1534;DHT22;760;48.822;9.304;2023-07-09T11:31:35;38.00;38.80
1534;DHT22;760;48.822;9.304;2023-07-09T11:34:09;37.60;39.30
1534;DHT22;760;48.822;9.304;2023-07-09T11:36:47;37.20;41.10
1534;DHT22;760;48.822;9.304;2023-07-09T11:39:29;36.60;41.10
1534;DHT22;760;48.822;9.304;2023-07-09T11:41:56;36.20;41.80
1534;DHT22;760;48.822;9.304;2023-07-09T11:44:28;35.90;41.90
1534;DHT22;760;48.822;9.304;2023-07-09T11:47:13;35.70;42.00
1534;DHT22;760;48.822;9.304;2023-07-09T11:52:13;35.50;42.30
1534;DHT22;760;48.822;9.304;2023-07-09T11:54:41;35.50;42.10
1534;DHT22;760;48.822;9.304;2023-07-09T11:57:11;35.50;42.40
1534;DHT22;760;48.822;9.304;2023-07-09T11:59:39;35.40;42.40
1534;DHT22;760;48.822;9.304;2023-07-09T12:02:06;35.40;42.90
1534;DHT22;760;48.822;9.304;2023-07-09T12:04:35;35.40;42.40
1534;DHT22;760;48.822;9.304;2023-07-09T12:07:01;35.50;41.90
1534;DHT22;760;48.822;9.304;2023-07-09T12:09:33;35.40;41.60
1534;DHT22;760;48.822;9.304;2023-07-09T12:12:02;35.50;41.90
1534;DHT22;760;48.822;9.304;2023-07-09T12:14:28;35.50;42.40
1534;DHT22;760;48.822;9.304;2023-07-09T12:16:54;35.60;41.50
1534;DHT22;760;48.822;9.304;2023-07-09T12:19:22;35.60;41.80
1534;DHT22;760;48.822;9.304;2023-07-09T12:21:52;35.60;41.80
1534;DHT22;760;48.822;9.304;2023-07-09T12:24:22;35.50;41.80
1534;DHT22;760;48.822;9.304;2023-07-09T12:26:54;35.70;41.50
1534;DHT22;760;48.822;9.304;2023-07-09T12:29:24;35.60;42.20
1534;DHT22;760;48.822;9.304;2023-07-09T12:31:51;35.60;41.90
1534;DHT22;760;48.822;9.304;2023-07-09T12:34:16;35.60;42.00
1534;DHT22;760;48.822;9.304;2023-07-09T12:36:46;35.50;42.20
1534;DHT22;760;48.822;9.304;2023-07-09T12:39:12;35.40;42.70
1534;DHT22;760;48.822;9.304;2023-07-09T12:41:41;35.30;43.00
1534;DHT22;760;48.822;9.304;2023-07-09T12:44:18;35.30;42.90
1534;DHT22;760;48.822;9.304;2023-07-09T12:46:46;35.40;42.20
1534;DHT22;760;48.822;9.304;2023-07-09T12:49:30;35.40;42.30
1534;DHT22;760;48.822;9.304;2023-07-09T12:52:02;35.30;42.20
1534;DHT22;760;48.822;9.304;2023-07-09T12:54:29;35.20;42.20
1534;DHT22;760;48.822;9.304;2023-07-09T12:56:58;35.20;42.70
1534;DHT22;760;48.822;9.304;2023-07-09T12:59:36;35.30;42.80
1534;DHT22;760;48.822;9.304;2023-07-09T13:02:23;35.30;42.50
1534;DHT22;760;48.822;9.304;2023-07-09T13:04:50;35.50;42.90
1534;DHT22;760;48.822;9.304;2023-07-09T13:09:52;35.60;42.40
1534;DHT22;760;48.822;9.304;2023-07-09T13:12:19;35.60;41.80
1534;DHT22;760;48.822;9.304;2023-07-09T13:14:55;35.60;42.20
1534;DHT22;760;48.822;9.304;2023-07-09T13:17:21;35.60;42.20
1534;DHT22;760;48.822;9.304;2023-07-09T13:19:47;35.70;41.60
1534;DHT22;760;48.822;9.304;2023-07-09T13:22:14;35.80;42.30
1534;DHT22;760;48.822;9.304;2023-07-09T13:24:40;35.90;41.70
1534;DHT22;760;48.822;9.304;2023-07-09T13:27:11;36.00;41.80
1534;DHT22;760;48.822;9.304;2023-07-09T13:29:37;36.10;41.50
1534;DHT22;760;48.822;9.304;2023-07-09T13:32:11;36.10;41.90
1534;DHT22;760;48.822;9.304;2023-07-09T13:34:37;36.20;41.40
1534;DHT22;760;48.822;9.304;2023-07-09T13:37:05;36.20;40.90
1534;DHT22;760;48.822;9.304;2023-07-09T13:39:31;36.20;40.80
1534;DHT22;760;48.822;9.304;2023-07-09T13:41:57;36.30;41.30
1534;DHT22;760;48.822;9.304;2023-07-09T13:44:28;36.40;41.30
1534;DHT22;760;48.822;9.304;2023-07-09T13:46:55;36.40;41.10
1534;DHT22;760;48.822;9.304;2023-07-09T13:49:23;36.40;41.00
1534;DHT22;760;48.822;9.304;2023-07-09T13:51:51;36.40;40.80
1534;DHT22;760;48.822;9.304;2023-07-09T13:54:31;36.40;39.10
1534;DHT22;760;48.822;9.304;2023-07-09T13:57:01;36.40;39.10
1534;DHT22;760;48.822;9.304;2023-07-09T13:59:28;36.50;38.40
1534;DHT22;760;48.822;9.304;2023-07-09T14:01:56;36.40;37.20
1534;DHT22;760;48.822;9.304;2023-07-09T14:04:22;36.30;38.30
1534;DHT22;760;48.822;9.304;2023-07-09T14:06:48;36.30;37.70
1534;DHT22;760;48.822;9.304;2023-07-09T14:09:15;36.30;38.40
1534;DHT22;760;48.822;9.304;2023-07-09T14:12:01;36.30;38.30
1534;DHT22;760;48.822;9.304;2023-07-09T14:14:31;36.40;37.60
1534;DHT22;760;48.822;9.304;2023-07-09T14:16:58;36.40;37.30
1534;DHT22;760;48.822;9.304;2023-07-09T14:19:25;36.30;37.90
1534;DHT22;760;48.822;9.304;2023-07-09T14:21:51;36.30;38.00
1534;DHT22;760;48.822;9.304;2023-07-09T14:24:26;36.20;38.00
1534;DHT22;760;48.822;9.304;2023-07-09T14:26:53;36.30;38.80
1534;DHT22;760;48.822;9.304;2023-07-09T14:29:19;36.30;38.70
1534;DHT22;760;48.822;9.304;2023-07-09T14:31:46;36.30;38.40
1534;DHT22;760;48.822;9.304;2023-07-09T14:34:24;36.30;38.10
1534;DHT22;760;48.822;9.304;2023-07-09T14:36:51;36.10;38.40
1534;DHT22;760;48.822;9.304;2023-07-09T14:39:18;36.00;38.00
1534;DHT22;760;48.822;9.304;2023-07-09T14:41:44;35.90;38.40
1534;DHT22;760;48.822;9.304;2023-07-09T14:44:30;35.80;39.00
1534;DHT22;760;48.822;9.304;2023-07-09T14:46:58;35.80;39.80
1534;DHT22;760;48.822;9.304;2023-07-09T14:49:25;35.80;39.20
1534;DHT22;760;48.822;9.304;2023-07-09T14:51:51;35.80;39.40
1534;DHT22;760;48.822;9.304;2023-07-09T14:54:35;35.90;39.50
1534;DHT22;760;48.822;9.304;2023-07-09T14:57:16;36.00;39.90
1534;DHT22;760;48.822;9.304;2023-07-09T14:59:43;36.10;40.60
1534;DHT22;760;48.822;9.304;2023-07-09T15:02:35;36.20;40.50
1534;DHT22;760;48.822;9.304;2023-07-09T15:05:03;36.40;40.40
1534;DHT22;760;48.822;9.304;2023-07-09T15:07:29;36.50;40.60
1534;DHT22;760;48.822;9.304;2023-07-09T15:09:59;36.60;39.90
1534;DHT22;760;48.822;9.304;2023-07-09T15:12:28;36.70;39.30
1534;DHT22;760;48.822;9.304;2023-07-09T15:15:44;36.70;39.30
1534;DHT22;760;48.822;9.304;2023-07-09T15:17:45;36.60;39.40
1534;DHT22;760;48.822;9.304;2023-07-09T15:20:25;36.60;40.10
1534;DHT22;760;48.822;9.304;2023-07-09T15:22:53;36.50;39.60
1534;DHT22;760;48.822;9.304;2023-07-09T15:25:22;36.50;40.30
1534;DHT22;760;48.822;9.304;2023-07-09T15:27:48;36.40;40.80
1534;DHT22;760;48.822;9.304;2023-07-09T15:30:22;36.40;41.30
1534;DHT22;760;48.822;9.304;2023-07-09T15:32:48;36.30;41.70
1534;DHT22;760;48.822;9.304;2023-07-09T15:35:19;36.20;42.30
1534;DHT22;760;48.822;9.304;2023-07-09T15:37:46;36.10;42.40
1534;DHT22;760;48.822;9.304;2023-07-09T15:40:26;36.00;42.70
1534;DHT22;760;48.822;9.304;2023-07-09T15:42:57;35.80;42.40
1534;DHT22;760;48.822;9.304;2023-07-09T15:45:23;35.70;42.30
1534;DHT22;760;48.822;9.304;2023-07-09T15:47:50;35.50;42.70
1534;DHT22;760;48.822;9.304;2023-07-09T15:50:27;35.50;43.20
1534;DHT22;760;48.822;9.304;2023-07-09T15:52:53;35.40;43.20
1534;DHT22;760;48.822;9.304;2023-07-09T15:55:23;35.40;43.20
1534;DHT22;760;48.822;9.304;2023-07-09T15:57:50;35.30;43.40
1534;DHT22;760;48.822;9.304;2023-07-09T16:00:26;35.30;42.90
1534;DHT22;760;48.822;9.304;2023-07-09T16:02:53;35.30;42.40
1534;DHT22;760;48.822;9.304;2023-07-09T16:05:24;35.30;42.10
1534;DHT22;760;48.822;9.304;2023-07-09T16:07:51;35.30;42.60
1534;DHT22;760;48.822;9.304;2023-07-09T16:10:17;35.40;42.90
1534;DHT22;760;48.822;9.304;2023-07-09T16:12:45;35.40;41.70
1534;DHT22;760;48.822;9.304;2023-07-09T16:15:13;35.40;42.00
1534;DHT22;760;48.822;9.304;2023-07-09T16:17:43;35.30;42.20
1534;DHT22;760;48.822;9.304;2023-07-09T16:20:12;35.30;42.40
1534;DHT22;760;48.822;9.304;2023-07-09T16:22:43;35.30;42.20
1534;DHT22;760;48.822;9.304;2023-07-09T16:27:39;35.20;42.60
1534;DHT22;760;48.822;9.304;2023-07-09T16:30:17;35.10;42.60
1534;DHT22;760;48.822;9.304;2023-07-09T16:32:44;35.00;42.50
1534;DHT22;760;48.822;9.304;2023-07-09T16:35:14;35.00;42.50
1534;DHT22;760;48.822;9.304;2023-07-09T16:37:41;34.90;42.90
1534;DHT22;760;48.822;9.304;2023-07-09T16:40:14;34.80;42.80
1534;DHT22;760;48.822;9.304;2023-07-09T16:42:40;34.80;42.60
1534;DHT22;760;48.822;9.304;2023-07-09T16:45:07;34.70;42.70
1534;DHT22;760;48.822;9.304;2023-07-09T16:47:33;34.50;42.80
1534;DHT22;760;48.822;9.304;2023-07-09T16:49:59;34.50;42.60
1534;DHT22;760;48.822;9.304;2023-07-09T16:52:25;34.50;42.90
1534;DHT22;760;48.822;9.304;2023-07-09T16:54:54;34.40;43.10
1534;DHT22;760;48.822;9.304;2023-07-09T16:57:24;34.40;43.50
1534;DHT22;760;48.822;9.304;2023-07-09T16:59:52;34.40;43.90
1534;DHT22;760;48.822;9.304;2023-07-09T17:02:27;34.30;44.10
1534;DHT22;760;48.822;9.304;2023-07-09T17:04:55;34.30;44.20
1534;DHT22;760;48.822;9.304;2023-07-09T17:07:21;34.30;44.30
1534;DHT22;760;48.822;9.304;2023-07-09T17:09:47;34.20;44.00
1534;DHT22;760;48.822;9.304;2023-07-09T17:12:14;34.20;44.00
1534;DHT22;760;48.822;9.304;2023-07-09T17:14:41;34.10;44.10
1534;DHT22;760;48.822;9.304;2023-07-09T17:17:16;34.10;44.20
1534;DHT22;760;48.822;9.304;2023-07-09T17:19:42;34.10;44.20
1534;DHT22;760;48.822;9.304;2023-07-09T17:22:31;34.10;44.40
1534;DHT22;760;48.822;9.304;2023-07-09T17:24:57;34.10;44.80
1534;DHT22;760;48.822;9.304;2023-07-09T17:27:23;34.10;45.30
1534;DHT22;760;48.822;9.304;2023-07-09T17:29:49;34.10;45.50
1534;DHT22;760;48.822;9.304;2023-07-09T17:32:14;34.00;46.00
1534;DHT22;760;48.822;9.304;2023-07-09T17:34:41;34.00;45.80
1534;DHT22;760;48.822;9.304;2023-07-09T17:37:12;33.90;46.40
1534;DHT22;760;48.822;9.304;2023-07-09T17:39:38;33.90;46.30
1534;DHT22;760;48.822;9.304;2023-07-09T17:42:07;33.80;46.60
1534;DHT22;760;48.822;9.304;2023-07-09T17:44:35;33.80;46.30
1534;DHT22;760;48.822;9.304;2023-07-09T17:47:00;33.80;46.30
1534;DHT22;760;48.822;9.304;2023-07-09T17:49:29;33.80;46.50
1534;DHT22;760;48.822;9.304;2023-07-09T17:51:55;33.70;46.80
1534;DHT22;760;48.822;9.304;2023-07-09T17:54:23;33.60;47.00
1534;DHT22;760;48.822;9.304;2023-07-09T17:56:51;33.50;47.30
1534;DHT22;760;48.822;9.304;2023-07-09T17:59:20;33.40;47.50
1534;DHT22;760;48.822;9.304;2023-07-09T18:04:36;33.10;47.90
1534;DHT22;760;48.822;9.304;2023-07-09T18:07:16;32.90;48.20
1534;DHT22;760;48.822;9.304;2023-07-09T18:09:42;32.80;48.40
1534;DHT22;760;48.822;9.304;2023-07-09T18:12:12;32.70;48.70
1534;DHT22;760;48.822;9.304;2023-07-09T18:14:41;32.50;49.10
1534;DHT22;760;48.822;9.304;2023-07-09T18:17:30;32.40;49.20
1534;DHT22;760;48.822;9.304;2023-07-09T18:19:57;32.20;49.60
1534;DHT22;760;48.822;9.304;2023-07-09T18:22:23;32.10;50.20
1534;DHT22;760;48.822;9.304;2023-07-09T18:24:51;32.00;50.50
1534;DHT22;760;48.822;9.304;2023-07-09T18:27:23;31.80;50.60
1534;DHT22;760;48.822;9.304;2023-07-09T18:29:51;31.70;51.10
1534;DHT22;760;48.822;9.304;2023-07-09T18:32:22;31.60;50.90
1534;DHT22;760;48.822;9.304;2023-07-09T18:34:53;31.50;51.20
1534;DHT22;760;48.822;9.304;2023-07-09T18:37:19;31.50;51.50
1534;DHT22;760;48.822;9.304;2023-07-09T18:39:47;31.40;51.30
1534;DHT22;760;48.822;9.304;2023-07-09T18:42:21;31.30;51.30
1534;DHT22;760;48.822;9.304;2023-07-09T18:44:47;31.30;51.30
1534;DHT22;760;48.822;9.304;2023-07-09T18:47:15;31.20;51.40
1534;DHT22;760;48.822;9.304;2023-07-09T18:49:42;31.10;51.40
1534;DHT22;760;48.822;9.304;2023-07-09T18:52:17;31.00;51.60
1534;DHT22;760;48.822;9.304;2023-07-09T18:54:51;30.90;51.80
1534;DHT22;760;48.822;9.304;2023-07-09T18:57:18;30.80;52.10
1534;DHT22;760;48.822;9.304;2023-07-09T18:59:43;30.70;52.10
1534;DHT22;760;48.822;9.304;2023-07-09T19:02:29;30.60;52.70
1534;DHT22;760;48.822;9.304;2023-07-09T19:04:55;30.50;52.90
1534;DHT22;760;48.822;9.304;2023-07-09T19:07:22;30.40;52.70
1534;DHT22;760;48.822;9.304;2023-07-09T19:09:48;30.30;52.60
1534;DHT22;760;48.822;9.304;2023-07-09T19:12:19;30.20;52.80
1534;DHT22;760;48.822;9.304;2023-07-09T19:14:44;30.20;53.30
1534;DHT22;760;48.822;9.304;2023-07-09T19:17:16;30.10;53.70
1534;DHT22;760;48.822;9.304;2023-07-09T19:19:42;29.90;54.40
1534;DHT22;760;48.822;9.304;2023-07-09T19:22:14;29.80;54.40
1534;DHT22;760;48.822;9.304;2023-07-09T19:24:42;29.70;54.50
1534;DHT22;760;48.822;9.304;2023-07-09T19:27:08;29.60;54.40
1534;DHT22;760;48.822;9.304;2023-07-09T19:29:33;29.60;54.90
1534;DHT22;760;48.822;9.304;2023-07-09T19:32:03;29.50;55.20
1534;DHT22;760;48.822;9.304;2023-07-09T19:34:35;29.40;55.30
1534;DHT22;760;48.822;9.304;2023-07-09T19:37:05;29.30;55.70
1534;DHT22;760;48.822;9.304;2023-07-09T19:39:37;29.20;55.90
1534;DHT22;760;48.822;9.304;2023-07-09T19:42:16;29.10;56.30
1534;DHT22;760;48.822;9.304;2023-07-09T19:44:43;29.00;56.60
1534;DHT22;760;48.822;9.304;2023-07-09T19:47:34;28.90;57.40
1534;DHT22;760;48.822;9.304;2023-07-09T19:50:03;28.90;57.60
1534;DHT22;760;48.822;9.304;2023-07-09T19:52:31;28.70;57.90
1534;DHT22;760;48.822;9.304;2023-07-09T19:55:06;28.60;59.50
1534;DHT22;760;48.822;9.304;2023-07-09T19:57:39;28.50;59.70
1534;DHT22;760;48.822;9.304;2023-07-09T20:00:06;28.40;59.70
1534;DHT22;760;48.822;9.304;2023-07-09T20:02:33;28.30;59.70
1534;DHT22;760;48.822;9.304;2023-07-09T20:05:00;28.20;59.70
1534;DHT22;760;48.822;9.304;2023-07-09T20:07:26;28.10;60.00
1534;DHT22;760;48.822;9.304;2023-07-09T20:09:52;28.00;60.00
1534;DHT22;760;48.822;9.304;2023-07-09T20:12:24;27.90;59.90
1534;DHT22;760;48.822;9.304;2023-07-09T20:14:55;27.90;60.10
1534;DHT22;760;48.822;9.304;2023-07-09T20:17:21;27.80;60.50
1534;DHT22;760;48.822;9.304;2023-07-09T20:19:47;27.70;60.50
1534;DHT22;760;48.822;9.304;2023-07-09T20:22:15;27.70;60.50
1534;DHT22;760;48.822;9.304;2023-07-09T20:24:42;27.60;60.20
1534;DHT22;760;48.822;9.304;2023-07-09T20:27:14;27.50;60.30
1534;DHT22;760;48.822;9.304;2023-07-09T20:29:40;27.40;61.10
1534;DHT22;760;48.822;9.304;2023-07-09T20:32:13;27.40;62.10
1534;DHT22;760;48.822;9.304;2023-07-09T20:34:43;27.30;63.40
1534;DHT22;760;48.822;9.304;2023-07-09T20:37:09;27.30;63.20
1534;DHT22;760;48.822;9.304;2023-07-09T20:39:36;27.20;63.20
1534;DHT22;760;48.822;9.304;2023-07-09T20:42:02;27.10;62.90
1534;DHT22;760;48.822;9.304;2023-07-09T20:44:34;27.10;62.70
1534;DHT22;760;48.822;9.304;2023-07-09T20:47:00;27.10;62.80
1534;DHT22;760;48.822;9.304;2023-07-09T20:49:32;27.10;63.00
1534;DHT22;760;48.822;9.304;2023-07-09T20:52:00;27.00;63.50
1534;DHT22;760;48.822;9.304;2023-07-09T20:54:26;27.00;63.50
1534;DHT22;760;48.822;9.304;2023-07-09T20:56:55;26.90;64.60
1534;DHT22;760;48.822;9.304;2023-07-09T20:59:22;26.90;63.90
1534;DHT22;760;48.822;9.304;2023-07-09T21:01:47;26.80;64.40
1534;DHT22;760;48.822;9.304;2023-07-09T21:04:15;26.80;64.20